Time;durP1;ratioP1;P1;durP2;ratioP2;P2;SDS_P1;SDS_P2;PMS_P1;PMS_P2;Temp;Humidity;BMP_temperature;BMP_pressure;BME280_temperature;BME280_humidity;BME280_pressure;Samples;Min_cycle;Max_cycle;Signal;HPM_P1;HPM_P2
2023/02/24 00:00:31;;;;;;;;;;;;;;;;;;5094768;28;19908;-70
2023/02/24 00:02:57;;;;;;;;;;;;;;;;;;5094520;28;19908;-70
2023/02/24 00:05:23;;;;;;;;;;;;;;;;;;5094761;28;19915;-70
2023/02/24 00:07:49;;;;;;;;;;;;;;;;;;5093463;28;19908;-70
2023/02/24 00:10:20;;;;;;;;;;;;;;;;;;5092601;28;19908;-70
2023/02/24 00:12:46;;;;;;;;;;;;;;;;;;5094762;28;19908;-70
2023/02/24 00:15:12;;;;;;;;;;;;;;;;;;5093412;28;19977;-70
2023/02/24 00:17:38;;;;;;;;;;;;;;;;;;5094133;28;19983;-70
2023/02/24 00:20:06;;;;;;;;;;;;;;;;;;5094157;28;20022;-70
2023/02/24 00:22:32;;;;;;;;;;;;;;;;;;5094574;28;20384;-70
2023/02/24 00:25:02;;;;;;;;;;;;;;;;;;5090334;28;19915;-70
2023/02/24 00:27:28;;;;;;;;;;;;;;;;;;5094526;28;19931;-70
2023/02/24 00:29:54;;;;;;;;;;;;;;;;;;5094144;28;19908;-70
2023/02/24 00:32:20;;;;;;;;;;;;;;;;;;5093873;28;20376;-70
2023/02/24 00:34:46;;;;;;;;;;;;;;;;;;5092857;28;19957;-70
2023/02/24 00:37:14;;;;;;;;;;;;;;;;;;5093785;28;19993;-70
2023/02/24 00:39:40;;;;;;;;;;;;;;;;;;5092352;28;19908;-70
2023/02/24 00:42:06;;;;;;;;;;;;;;;;;;5091485;28;19918;-70
2023/02/24 00:44:32;;;;;;;;;;;;;;;;;;5091123;28;19908;-70
2023/02/24 00:46:59;;;;;;;;;;;;;;;;;;5093991;28;19908;-70
2023/02/24 00:49:25;;;;;;;;;;;;;;;;;;5094070;28;20257;-69
2023/02/24 00:51:53;;;;;;;;;;;;;;;;;;5093526;28;19923;-70
2023/02/24 00:54:19;;;;;;;;;;;;;;;;;;5093982;28;19908;-70
2023/02/24 00:56:44;;;;;;;;;;;;;;;;;;5093882;28;19916;-70
2023/02/24 00:59:11;;;;;;;;;;;;;;;;;;5092085;28;19912;-70
2023/02/24 01:01:37;;;;;;;;;;;;;;;;;;5092628;28;19959;-70
2023/02/24 01:04:09;;;;;;;;;;;;;;;;;;5093883;28;20323;-70
2023/02/24 01:06:35;;;;;;;;;;;;;;;;;;5093557;28;20007;-70
2023/02/24 01:09:06;;;;;;;;;;;;;;;;;;5093754;28;20383;-70
2023/02/24 01:14:22;;;;;;;;;;;;;;;;;;5073820;28;19912;-70
2023/02/24 01:16:51;;;;;;;;;;;;;;;;;;5092530;28;19916;-69
2023/02/24 01:19:17;;;;;;;;;;;;;;;;;;5093827;28;19909;-70
2023/02/24 01:21:44;;;;;;;;;;;;;;;;;;5093471;28;19915;-70
2023/02/24 01:24:10;;;;;;;;;;;;;;;;;;5094112;28;19908;-70
2023/02/24 01:26:36;;;;;;;;;;;;;;;;;;5092049;28;19908;-69
2023/02/24 01:29:08;;;;;;;;;;;;;;;;;;5092303;28;19912;-70
2023/02/24 01:31:34;;;;;;;;;;;;;;;;;;5092434;28;19969;-69
2023/02/24 01:34:04;;;;;;;;;;;;;;;;;;5097242;28;19912;-69
2023/02/24 01:36:30;;;;;;;;;;;;;;;;;;5096722;28;20318;-69
2023/02/24 01:38:56;;;;;;;;;;;;;;;;;;5097614;28;19908;-69
2023/02/24 01:41:22;;;;;;;;;;;;;;;;;;5097134;28;19911;-69
2023/02/24 01:43:49;;;;;;;;;;;;;;;;;;5096291;28;19943;-69
2023/02/24 01:46:16;;;;;;;;;;;;;;;;;;5097862;28;20275;-69
2023/02/24 01:48:42;;;;;;;;;;;;;;;;;;5096106;28;20312;-69
2023/02/24 01:51:08;;;;;;;;;;;;;;;;;;5097772;28;19917;-69
2023/02/24 01:53:34;;;;;;;;;;;;;;;;;;5097414;28;19915;-69
2023/02/24 01:56:00;;;;;;;;;;;;;;;;;;5097046;28;19961;-72
2023/02/24 01:58:26;;;;;;;;;;;;;;;;;;5096037;28;19966;-70
2023/02/24 02:00:52;;;;;;;;;;;;;;;;;;5095931;28;19949;-70
2023/02/24 02:03:17;;;;;;;;;;;;;;;;;;5097002;28;19915;-69
2023/02/24 02:05:47;;;;;;;;;;;;;;;;;;5095848;28;19915;-70
2023/02/24 02:08:13;;;;;;;;;;;;;;;;;;5097130;28;19916;-69
2023/02/24 02:10:39;;;;;;;;;;;;;;;;;;5096576;28;19924;-69
2023/02/24 02:13:05;;;;;;;;;;;;;;;;;;5095698;28;20322;-69
2023/02/24 02:15:31;;;;;;;;;;;;;;;;;;5095609;28;19908;-69
2023/02/24 02:17:57;;;;;;;;;;;;;;;;;;5095368;28;19912;-69
2023/02/24 02:20:23;;;;;;;;;;;;;;;;;;5095573;28;19951;-68
2023/02/24 02:22:49;;;;;;;;;;;;;;;;;;5096419;28;19908;-69
2023/02/24 02:25:15;;;;;;;;;;;;;;;;;;5095421;28;19908;-69
2023/02/24 02:27:41;;;;;;;;;;;;;;;;;;5096663;28;19909;-69
2023/02/24 02:30:12;;;;;;;;;;;;;;;;;;5094945;28;19991;-69
2023/02/24 02:32:38;;;;;;;;;;;;;;;;;;5096679;28;19908;-69
2023/02/24 02:35:05;;;;;;;;;;;;;;;;;;5096628;28;19915;-69
2023/02/24 02:37:31;;;;;;;;;;;;;;;;;;5096188;28;19948;-69
2023/02/24 02:39:58;;;;;;;;;;;;;;;;;;5096561;28;19918;-69
2023/02/24 02:42:23;;;;;;;;;;;;;;;;;;5096378;28;19961;-68
2023/02/24 02:44:54;;;;;;;;;;;;;;;;;;5094386;28;19908;-69
2023/02/24 02:47:21;;;;;;;;;;;;;;;;;;5096457;28;19995;-69
2023/02/24 02:49:47;;;;;;;;;;;;;;;;;;5096263;28;19908;-68
2023/02/24 02:52:14;;;;;;;;;;;;;;;;;;5095814;28;20014;-69
2023/02/24 02:54:40;;;;;;;;;;;;;;;;;;5094916;28;19990;-69
2023/02/24 02:57:06;;;;;;;;;;;;;;;;;;5096331;28;20324;-69
2023/02/24 02:59:32;;;;;;;;;;;;;;;;;;5095631;28;20284;-69
2023/02/24 03:02:10;;;;;;;;;;;;;;;;;;5094780;28;20300;-69
2023/02/24 03:04:37;;;;;;;;;;;;;;;;;;5095296;28;19908;-69
2023/02/24 03:07:03;;;;;;;;;;;;;;;;;;5095510;28;19912;-69
2023/02/24 03:09:29;;;;;;;;;;;;;;;;;;5094639;28;20280;-68
2023/02/24 03:11:58;;;;;;;;;;;;;;;;;;5095224;28;20399;-69
2023/02/24 03:14:24;;;;;;;;;;;;;;;;;;5095857;28;19908;-69
2023/02/24 03:16:50;;;;;;;;;;;;;;;;;;5096102;28;20008;-69
2023/02/24 03:19:15;;;;;;;;;;;;;;;;;;5093991;28;20380;-69
2023/02/24 03:21:44;;;;;;;;;;;;;;;;;;5096321;28;20375;-69
2023/02/24 03:24:09;;;;;;;;;;;;;;;;;;5095656;28;19908;-69
2023/02/24 03:26:36;;;;;;;;;;;;;;;;;;5095151;28;19962;-68
2023/02/24 03:29:02;;;;;;;;;;;;;;;;;;5095471;28;20412;-68
2023/02/24 03:31:28;;;;;;;;;;;;;;;;;;5095370;28;19959;-69
2023/02/24 03:33:55;;;;;;;;;;;;;;;;;;5095011;28;19908;-69
2023/02/24 03:36:22;;;;;;;;;;;;;;;;;;5095432;28;19912;-69
2023/02/24 03:38:49;;;;;;;;;;;;;;;;;;5095344;28;19931;-69
2023/02/24 03:41:15;;;;;;;;;;;;;;;;;;5094895;28;19909;-69
2023/02/24 03:43:41;;;;;;;;;;;;;;;;;;5095228;28;19915;-68
2023/02/24 03:46:07;;;;;;;;;;;;;;;;;;5095186;28;19908;-68
2023/02/24 03:48:33;;;;;;;;;;;;;;;;;;5094780;28;19939;-68
2023/02/24 03:50:59;;;;;;;;;;;;;;;;;;5094954;28;19923;-68
2023/02/24 03:53:29;;;;;;;;;;;;;;;;;;5095040;28;19908;-68
2023/02/24 03:55:57;;;;;;;;;;;;;;;;;;5093699;28;19908;-68
2023/02/24 03:58:23;;;;;;;;;;;;;;;;;;5094937;28;19915;-69
2023/02/24 04:00:49;;;;;;;;;;;;;;;;;;5094907;28;20285;-68
2023/02/24 04:03:15;;;;;;;;;;;;;;;;;;5094735;28;19908;-69
2023/02/24 04:05:46;;;;;;;;;;;;;;;;;;5093587;28;19974;-69
2023/02/24 04:08:12;;;;;;;;;;;;;;;;;;5094407;28;20008;-69
2023/02/24 04:10:38;;;;;;;;;;;;;;;;;;5094623;28;19920;-69
2023/02/24 04:13:04;;;;;;;;;;;;;;;;;;5093567;28;19957;-69
2023/02/24 04:15:30;;;;;;;;;;;;;;;;;;5094236;28;19912;-69
2023/02/24 04:17:56;;;;;;;;;;;;;;;;;;5094610;28;19938;-69
2023/02/24 04:20:22;;;;;;;;;;;;;;;;;;5094340;28;20002;-69
2023/02/24 04:22:48;;;;;;;;;;;;;;;;;;5092759;28;19993;-69
2023/02/24 04:25:14;;;;;;;;;;;;;;;;;;5093255;28;19908;-69
2023/02/24 04:27:40;;;;;;;;;;;;;;;;;;5094533;28;19962;-69
2023/02/24 04:30:09;;;;;;;;;;;;;;;;;;5094068;28;19908;-69
2023/02/24 04:32:35;;;;;;;;;;;;;;;;;;5094462;28;19928;-69
2023/02/24 04:35:01;;;;;;;;;;;;;;;;;;5094366;28;19909;-69
2023/02/24 04:37:32;;;;;;;;;;;;;;;;;;5093976;28;19915;-69
2023/02/24 04:39:58;;;;;;;;;;;;;;;;;;5094306;28;20368;-69
2023/02/24 04:42:24;;;;;;;;;;;;;;;;;;5092946;28;20003;-69
2023/02/24 04:44:52;;;;;;;;;;;;;;;;;;5093802;28;19908;-69
2023/02/24 04:47:18;;;;;;;;;;;;;;;;;;5092764;28;20360;-69
2023/02/24 04:49:44;;;;;;;;;;;;;;;;;;5093008;28;19908;-69
2023/02/24 04:52:10;;;;;;;;;;;;;;;;;;5093601;28;19916;-69
2023/02/24 04:54:36;;;;;;;;;;;;;;;;;;5094071;28;19912;-69
2023/02/24 04:57:03;;;;;;;;;;;;;;;;;;5094080;28;20059;-69
2023/02/24 04:59:30;;;;;;;;;;;;;;;;;;5093535;28;20373;-69
2023/02/24 05:02:00;;;;;;;;;;;;;;;;;;5092656;28;19922;-69
2023/02/24 05:04:26;;;;;;;;;;;;;;;;;;5092207;28;19908;-69
2023/02/24 05:06:55;;;;;;;;;;;;;;;;;;5093748;28;19908;-69
2023/02/24 05:09:22;;;;;;;;;;;;;;;;;;5094008;28;20438;-69
2023/02/24 05:11:48;;;;;;;;;;;;;;;;;;5093410;28;19924;-69
2023/02/24 05:14:13;;;;;;;;;;;;;;;;;;5093971;28;19915;-69
2023/02/24 05:16:39;;;;;;;;;;;;;;;;;;5093973;28;20015;-69
2023/02/24 05:21:50;;;;;;;;;;;;;;;;;;5093806;28;20421;-70
2023/02/24 05:24:16;;;;;;;;;;;;;;;;;;5092491;28;19947;-70
2023/02/24 05:26:42;;;;;;;;;;;;;;;;;;5093456;28;20430;-69
2023/02/24 05:29:08;;;;;;;;;;;;;;;;;;5092623;28;20347;-70
2023/02/24 05:31:34;;;;;;;;;;;;;;;;;;5092381;28;19965;-69
2023/02/24 05:34:01;;;;;;;;;;;;;;;;;;5091916;28;20276;-69
2023/02/24 05:36:28;;;;;;;;;;;;;;;;;;5092236;28;19912;-69
2023/02/24 05:38:57;;;;;;;;;;;;;;;;;;5092662;28;20268;-69
2023/02/24 05:41:23;;;;;;;;;;;;;;;;;;5092035;28;20276;-69
2023/02/24 05:43:53;;;;;;;;;;;;;;;;;;5092324;28;19915;-69
2023/02/24 05:46:19;;;;;;;;;;;;;;;;;;5093527;28;20392;-69
2023/02/24 05:48:45;;;;;;;;;;;;;;;;;;5092331;28;19955;-69
2023/02/24 05:51:12;;;;;;;;;;;;;;;;;;5092491;28;19938;-70
2023/02/24 05:53:41;;;;;;;;;;;;;;;;;;5093348;28;20462;-70
2023/02/24 05:56:07;;;;;;;;;;;;;;;;;;5093513;28;19912;-70
2023/02/24 05:58:33;;;;;;;;;;;;;;;;;;5091834;28;20323;-70
2023/02/24 06:01:05;;;;;;;;;;;;;;;;;;5091085;28;19919;-69
2023/02/24 06:03:34;;;;;;;;;;;;;;;;;;5091407;28;19908;-70
2023/02/24 06:06:07;;;;;;;;;;;;;;;;;;5091307;28;19908;-70
2023/02/24 06:08:41;;;;;;;;;;;;;;;;;;5090856;28;20272;-70
2023/02/24 06:11:07;;;;;;;;;;;;;;;;;;5090350;28;19928;-70
2023/02/24 06:13:33;;;;;;;;;;;;;;;;;;5093737;28;19912;-74
2023/02/24 06:15:59;;;;;;;;;;;;;;;;;;5092362;28;19912;-75
2023/02/24 06:18:25;;;;;;;;;;;;;;;;;;5093770;28;19914;-75
2023/02/24 06:20:52;;;;;;;;;;;;;;;;;;5096127;28;20007;-73
2023/02/24 06:23:18;;;;;;;;;;;;;;;;;;5095597;28;20002;-68
2023/02/24 06:25:44;;;;;;;;;;;;;;;;;;5098309;28;19987;-68
2023/02/24 06:28:10;;;;;;;;;;;;;;;;;;5081680;28;20405;-67
2023/02/24 06:30:36;;;;;;;;;;;;;;;;;;5106183;28;19968;-67
2023/02/24 06:33:04;;;;;;;;;;;;;;;;;;5090138;28;19920;-67
2023/02/24 06:35:31;;;;;;;;;;;;;;;;;;5094248;28;20236;-66
2023/02/24 06:37:57;;;;;;;;;;;;;;;;;;5087175;28;19923;-66
2023/02/24 06:40:23;;;;;;;;;;;;;;;;;;5088175;28;19912;-66
2023/02/24 06:42:49;;;;;;;;;;;;;;;;;;5091500;28;20010;-67
2023/02/24 06:45:15;;;;;;;;;;;;;;;;;;5092096;28;19908;-66
2023/02/24 06:47:47;;;;;;;;;;;;;;;;;;5091099;28;19915;-66
2023/02/24 06:50:13;;;;;;;;;;;;;;;;;;5089289;28;19923;-66
2023/02/24 06:52:39;;;;;;;;;;;;;;;;;;5090523;28;19916;-67
2023/02/24 06:55:05;;;;;;;;;;;;;;;;;;5091451;28;20273;-66
2023/02/24 06:57:34;;;;;;;;;;;;;;;;;;5083716;28;19958;-66
2023/02/24 07:00:15;;;;;;;;;;;;;;;;;;5086276;28;19916;-67
2023/02/24 07:02:41;;;;;;;;;;;;;;;;;;5083440;28;20303;-67
2023/02/24 07:05:13;;;;;;;;;;;;;;;;;;5082571;28;19966;-67
2023/02/24 07:07:44;;;;;;;;;;;;;;;;;;5080925;28;19916;-68
2023/02/24 07:10:10;;;;;;;;;;;;;;;;;;5074307;28;20368;-68
2023/02/24 07:12:38;;;;;;;;;;;;;;;;;;5087724;28;19959;-68
2023/02/24 07:15:04;;;;;;;;;;;;;;;;;;5085266;28;19958;-68
2023/02/24 07:17:29;;;;;;;;;;;;;;;;;;5083751;28;19919;-69
2023/02/24 07:19:56;;;;;;;;;;;;;;;;;;5092578;28;19908;-68
2023/02/24 07:22:23;;;;;;;;;;;;;;;;;;5094309;28;20015;-68
2023/02/24 07:24:49;;;;;;;;;;;;;;;;;;5093068;28;20014;-69
2023/02/24 07:27:21;;;;;;;;;;;;;;;;;;5091901;28;19955;-67
2023/02/24 07:29:48;;;;;;;;;;;;;;;;;;5093824;28;19915;-68
2023/02/24 07:32:14;;;;;;;;;;;;;;;;;;5093832;28;20007;-68
2023/02/24 07:34:41;;;;;;;;;;;;;;;;;;5103546;28;19966;-69
2023/02/24 07:37:09;;;;;;;;;;;;;;;;;;5113404;28;19911;-70
2023/02/24 07:39:39;;;;;;;;;;;;;;;;;;5094745;28;19908;-69
2023/02/24 07:42:05;;;;;;;;;;;;;;;;;;5094561;28;19967;-70
2023/02/24 07:44:31;;;;;;;;;;;;;;;;;;5094459;28;19943;-70
2023/02/24 07:46:58;;;;;;;;;;;;;;;;;;5092593;28;19908;-69
2023/02/24 07:49:25;;;;;;;;;;;;;;;;;;5093036;28;19919;-68
2023/02/24 07:51:51;;;;;;;;;;;;;;;;;;5087482;28;20007;-69
2023/02/24 07:54:17;;;;;;;;;;;;;;;;;;5091489;28;19912;-66
2023/02/24 07:56:55;;;;;;;;;;;;;;;;;;5092729;28;19920;-66
2023/02/24 07:59:20;;;;;;;;;;;;;;;;;;5094008;28;19908;-69
2023/02/24 08:01:49;;;;;;;;;;;;;;;;;;5092906;28;20245;-69
2023/02/24 08:04:15;;;;;;;;;;;;;;;;;;5092796;28;20348;-68
2023/02/24 08:06:42;;;;;;;;;;;;;;;;;;5094001;28;19912;-67
2023/02/24 08:09:19;;;;;;;;;;;;;;;;;;5091237;28;20015;-67
2023/02/24 08:11:45;;;;;;;;;;;;;;;;;;5089517;28;20010;-66
2023/02/24 08:14:12;;;;;;;;;;;;;;;;;;5093602;28;19943;-67
2023/02/24 08:16:38;;;;;;;;;;;;;;;;;;5092177;28;19985;-67
2023/02/24 08:21:26;;;;;;;;;;;;;;;;;;4729264;27;12429710;-65
2023/02/24 08:25:37;;;;;;;;;;;;;;;;;;5021327;27;3799570;-68
2023/02/24 08:30:28;;;;;;;;;;;;;;;;;;5106451;27;20423;-68
2023/02/24 08:33:36;;;;;;;;;;;;;;;;;;5101692;27;20296;-68
2023/02/24 08:36:03;;;;;;;;;;;;;;;;;;5068622;28;19947;-68
2023/02/24 08:38:38;;;;;;;;;;;;;;;;;;5070049;28;19962;-68
2023/02/24 08:41:04;;;;;;;;;;;;;;;;;;5069067;28;19939;-69
2023/02/24 08:43:33;;;;;;;;;;;;;;;;;;5067775;28;19923;-70
2023/02/24 08:47:59;;;;;;;;;;;;;;;;;;5090717;28;19923;-69
2023/02/24 08:50:29;;;;;;;;;;;;;;;;;;5088408;28;19923;-69
2023/02/24 09:01:17;;;;;;;;;;;;;;;;;;5080910;27;19920;-68
2023/02/24 09:03:32;;;;;;;;;;;;;;;;;;5051192;28;20002;-67
2023/02/24 09:05:58;;;;;;;;;;;;;;;;;;5050097;28;20248;-68
2023/02/24 09:11:16;;;;;;;;;;;;;;;;;;5085213;28;19916;-70
2023/02/24 09:25:16;;;;;;;;;;;;;;;;;;5068708;28;19913;-68
2023/02/24 09:28:15;;;;;;;;;;;;;;;;;;5090609;27;19916;-73
2023/02/24 09:30:52;;;;;;;;;;;;;;;;;;5090459;28;19925;-73
2023/02/24 09:33:24;;;;;;;;;;;;;;;;;;5089508;28;19939;-71
2023/02/24 09:35:50;;;;;;;;;;;;;;;;;;5089738;28;19921;-73
2023/02/24 09:41:30;;;;;;;;;;;;;;;;;;5088674;27;19935;-76
2023/02/24 09:47:55;;;;;;;;;;;;;;;;;;5086735;28;19923;-75
2023/02/24 09:50:29;;;;;;;;;;;;;;;;;;5086925;28;19912;-75
2023/02/24 09:52:55;;;;;;;;;;;;;;;;;;5087500;28;19955;-74
2023/02/24 09:58:39;;;;;;;;;;;;;;;;;;5122929;27;20010;-70
2023/02/24 10:02:31;;;;;;;;;;;;;;;;;;5128923;27;20294;-69
2023/02/24 10:05:05;;;;;;;;;;;;;;;;;;5126765;28;19912;-70
2023/02/24 10:07:37;;;;;;;;;;;;;;;;;;5130136;27;20317;-69
2023/02/24 10:10:18;;;;;;;;;;;;;;;;;;5133549;27;20457;-70
2023/02/24 10:15:17;;;;;;;;;;;;;;;;;;5093157;27;2104206;-74
2023/02/24 10:20:55;;;;;;;;;;;;;;;;;;5105454;27;19920;-73
2023/02/24 10:27:14;;;;;;;;;;;;;;;;;;5083331;27;19913;-73
2023/02/24 10:30:03;;;;;;;;;;;;;;;;;;5147900;27;19912;-73
2023/02/24 10:32:32;;;;;;;;;;;;;;;;;;5147476;27;20002;-70
2023/02/24 10:36:16;;;;;;;;;;;;;;;;;;5145580;27;19915;-71
2023/02/24 10:40:45;;;;;;;;;;;;;;;;;;5106931;27;20376;-73
2023/02/24 10:43:16;;;;;;;;;;;;;;;;;;5105274;28;19922;-71
2023/02/24 10:45:43;;;;;;;;;;;;;;;;;;5104396;28;19912;-72
2023/02/24 10:48:09;;;;;;;;;;;;;;;;;;5105954;28;19926;-73
2023/02/24 10:50:42;;;;;;;;;;;;;;;;;;5105116;28;19908;-72
2023/02/24 10:56:25;;;;;;;;;;;;;;;;;;5088453;27;19919;-71
2023/02/24 11:01:19;;;;;;;;;;;;;;;;;;5090027;28;20442;-72
2023/02/24 11:05:03;;;;;;;;;;;;;;;;;;5110822;27;19920;-70
2023/02/24 11:09:01;;;;;;;;;;;;;;;;;;5090771;27;19920;-72
2023/02/24 11:19:50;;;;;;;;;;;;;;;;;;5151844;27;19919;-76
2023/02/24 11:25:27;;;;;;;;;;;;;;;;;;5109285;27;19916;-74
2023/02/24 11:27:52;;;;;;;;;;;;;;;;;;5109781;28;19934;-72
2023/02/24 11:30:18;;;;;;;;;;;;;;;;;;5109483;28;19908;-70
2023/02/24 11:32:44;;;;;;;;;;;;;;;;;;5108279;28;19956;-73
2023/02/24 11:35:20;;;;;;;;;;;;;;;;;;5109210;28;19912;-72
2023/02/24 11:40:07;;;;;;;;;;;;;;;;;;5109424;27;19916;-71
2023/02/24 11:42:57;;;;;;;;;;;;;;;;;;5089254;27;20546;-72
2023/02/24 11:45:23;;;;;;;;;;;;;;;;;;5088687;28;19916;-73
2023/02/24 11:47:49;;;;;;;;;;;;;;;;;;5089642;28;20364;-72
2023/02/24 11:50:15;;;;;;;;;;;;;;;;;;5089348;28;19940;-72
2023/02/24 11:54:40;;;;;;;;;;;;;;;;;;5089102;27;19916;-71
2023/02/24 11:57:06;;;;;;;;;;;;;;;;;;5088470;28;19919;-73
2023/02/24 11:59:32;;;;;;;;;;;;;;;;;;5088192;28;19909;-76
2023/02/24 12:02:00;;;;;;;;;;;;;;;;;;5086548;28;19909;-73
2023/02/24 12:04:26;;;;;;;;;;;;;;;;;;5087904;28;19908;-72
2023/02/24 12:06:52;;;;;;;;;;;;;;;;;;5084274;28;19908;-73
2023/02/24 12:11:34;;;;;;;;;;;;;;;;;;5148031;27;20477;-70
2023/02/24 12:15:48;;;;;;;;;;;;;;;;;;5087817;27;19930;-71
2023/02/24 12:18:14;;;;;;;;;;;;;;;;;;5085844;28;19967;-69
2023/02/24 12:22:43;;;;;;;;;;;;;;;;;;5086430;28;19916;-68
2023/02/24 12:25:09;;;;;;;;;;;;;;;;;;5086907;28;19919;-68
2023/02/24 12:30:05;;;;;;;;;;;;;;;;;;5129836;27;19919;-69
2023/02/24 12:32:31;;;;;;;;;;;;;;;;;;5129413;27;20283;-71
2023/02/24 12:37:11;;;;;;;;;;;;;;;;;;5110987;27;20413;-70
2023/02/24 12:41:33;;;;;;;;;;;;;;;;;;5111164;27;19912;-70
2023/02/24 12:43:59;;;;;;;;;;;;;;;;;;5110812;28;20006;-72
2023/02/24 12:46:25;;;;;;;;;;;;;;;;;;5110962;28;20258;-71
2023/02/24 12:48:51;;;;;;;;;;;;;;;;;;5110663;28;19935;-71
2023/02/24 12:51:17;;;;;;;;;;;;;;;;;;5110853;28;19946;-70
2023/02/24 12:53:49;;;;;;;;;;;;;;;;;;5109107;28;20027;-71
2023/02/24 12:56:16;;;;;;;;;;;;;;;;;;5109515;28;19908;-71
2023/02/24 12:58:43;;;;;;;;;;;;;;;;;;5110740;28;19962;-72
2023/02/24 13:01:09;;;;;;;;;;;;;;;;;;5109675;28;20368;-71
2023/02/24 13:03:35;;;;;;;;;;;;;;;;;;5110490;28;19908;-71
2023/02/24 13:06:01;;;;;;;;;;;;;;;;;;5110886;28;19964;-70
2023/02/24 13:08:27;;;;;;;;;;;;;;;;;;5110396;28;19908;-70
2023/02/24 13:10:53;;;;;;;;;;;;;;;;;;5108220;28;20037;-71
2023/02/24 13:13:19;;;;;;;;;;;;;;;;;;5108127;28;19916;-68
2023/02/24 13:15:45;;;;;;;;;;;;;;;;;;5109172;28;19908;-73
2023/02/24 13:18:11;;;;;;;;;;;;;;;;;;5110144;28;19951;-72
2023/02/24 13:20:37;;;;;;;;;;;;;;;;;;5110262;28;19955;-76
2023/02/24 13:23:03;;;;;;;;;;;;;;;;;;5110089;28;19958;-72
2023/02/24 13:25:29;;;;;;;;;;;;;;;;;;5109716;28;20040;-73
2023/02/24 13:27:55;;;;;;;;;;;;;;;;;;5116097;28;19947;-73
2023/02/24 13:30:21;;;;;;;;;;;;;;;;;;5130594;27;19908;-73
2023/02/24 13:32:47;;;;;;;;;;;;;;;;;;5129978;27;19908;-72
2023/02/24 13:35:13;;;;;;;;;;;;;;;;;;5129949;27;19908;-71
2023/02/24 13:37:39;;;;;;;;;;;;;;;;;;5130492;27;19907;-71
2023/02/24 13:40:06;;;;;;;;;;;;;;;;;;5129514;27;19933;-72
2023/02/24 13:42:32;;;;;;;;;;;;;;;;;;5128256;27;19914;-75
2023/02/24 13:45:18;;;;;;;;;;;;;;;;;;5107138;27;20007;-69
2023/02/24 13:47:44;;;;;;;;;;;;;;;;;;5107352;28;20035;-71
2023/02/24 13:50:10;;;;;;;;;;;;;;;;;;5108890;28;19912;-70
2023/02/24 13:58:07;;;;;;;;;;;;;;;;;;5087739;27;19912;-71
2023/02/24 14:00:33;;;;;;;;;;;;;;;;;;5086674;28;19919;-70
2023/02/24 14:02:59;;;;;;;;;;;;;;;;;;5085752;28;19909;-69
2023/02/24 14:06:38;;;;;;;;;;;;;;;;;;5108059;27;19938;-68
2023/02/24 14:09:04;;;;;;;;;;;;;;;;;;5108112;28;20368;-69
2023/02/24 14:11:30;;;;;;;;;;;;;;;;;;5111081;28;19969;-69
2023/02/24 14:13:56;;;;;;;;;;;;;;;;;;5111430;28;20368;-69
2023/02/24 14:16:22;;;;;;;;;;;;;;;;;;5110967;28;19908;-69
2023/02/24 14:18:48;;;;;;;;;;;;;;;;;;5111342;28;19935;-69
2023/02/24 14:21:14;;;;;;;;;;;;;;;;;;5110868;28;19908;-70
2023/02/24 14:23:40;;;;;;;;;;;;;;;;;;5111355;28;19916;-70
2023/02/24 14:28:31;;;;;;;;;;;;;;;;;;5089348;27;20138;-69
2023/02/24 14:30:57;;;;;;;;;;;;;;;;;;5089369;28;19912;-69
2023/02/24 14:34:33;;;;;;;;;;;;;;;;;;5109502;27;20410;-68
2023/02/24 14:36:59;;;;;;;;;;;;;;;;;;5109120;28;19912;-69
2023/02/24 14:39:25;;;;;;;;;;;;;;;;;;5110346;28;20414;-69
2023/02/24 14:43:13;;;;;;;;;;;;;;;;;;5111274;27;19916;-68
2023/02/24 14:45:39;;;;;;;;;;;;;;;;;;5111564;28;20321;-69
2023/02/24 14:48:06;;;;;;;;;;;;;;;;;;5111456;28;19908;-69
2023/02/24 14:52:39;;;;;;;;;;;;;;;;;;5111620;27;19912;-69
2023/02/24 14:55:55;;;;;;;;;;;;;;;;;;5111519;27;20410;-71
2023/02/24 15:00:35;;;;;;;;;;;;;;;;;;5091690;27;19916;-69
2023/02/24 15:03:01;;;;;;;;;;;;;;;;;;5090774;28;20012;-69
2023/02/24 15:05:27;;;;;;;;;;;;;;;;;;5091428;28;19909;-70
2023/02/24 15:07:53;;;;;;;;;;;;;;;;;;5091135;28;19924;-70
2023/02/24 15:12:46;;;;;;;;;;;;;;;;;;5153209;27;19964;-71
2023/02/24 15:17:59;;;;;;;;;;;;;;;;;;5111417;27;19916;-70
2023/02/24 15:20:25;;;;;;;;;;;;;;;;;;5110276;28;19957;-70
2023/02/24 15:22:50;;;;;;;;;;;;;;;;;;5111624;28;19912;-71
2023/02/24 15:25:16;;;;;;;;;;;;;;;;;;5111098;28;19915;-70
2023/02/24 15:28:34;;;;;;;;;;;;;;;;;;5111746;27;19922;-71
2023/02/24 15:31:00;;;;;;;;;;;;;;;;;;5111228;28;19912;-69
2023/02/24 15:33:26;;;;;;;;;;;;;;;;;;5111520;28;19908;-69
2023/02/24 15:35:52;;;;;;;;;;;;;;;;;;5111459;28;20220;-69
2023/02/24 15:40:35;;;;;;;;;;;;;;;;;;5111730;27;20307;-71
2023/02/24 15:43:21;;;;;;;;;;;;;;;;;;5111977;27;19916;-71
2023/02/24 15:46:22;;;;;;;;;;;;;;;;;;5111414;27;20291;-70
2023/02/24 15:51:27;;;;;;;;;;;;;;;;;;5091566;27;20006;-70
2023/02/24 15:53:53;;;;;;;;;;;;;;;;;;5091508;28;20360;-71
2023/02/24 15:56:19;;;;;;;;;;;;;;;;;;5090004;28;20388;-71
2023/02/24 16:01:02;;;;;;;;;;;;;;;;;;5091598;27;19913;-71
2023/02/24 16:03:43;;;;;;;;;;;;;;;;;;5091713;27;19913;-71
2023/02/24 16:06:53;;;;;;;;;;;;;;;;;;5091087;28;20364;-69
2023/02/24 16:11:26;;;;;;;;;;;;;;;;;;5111847;27;19949;-71
2023/02/24 16:13:52;;;;;;;;;;;;;;;;;;5111243;28;19965;-71
2023/02/24 16:16:18;;;;;;;;;;;;;;;;;;5111486;28;19962;-70
2023/02/24 16:20:18;;;;;;;;;;;;;;;;;;5091375;28;19912;-70
2023/02/24 16:25:14;;;;;;;;;;;;;;;;;;5111869;27;20295;-71
2023/02/24 16:27:59;;;;;;;;;;;;;;;;;;5111240;27;20297;-71
2023/02/24 16:30:25;;;;;;;;;;;;;;;;;;5111619;28;19912;-71
2023/02/24 16:32:51;;;;;;;;;;;;;;;;;;5111823;28;20360;-71
2023/02/24 16:41:14;;;;;;;;;;;;;;;;;;5111810;27;19916;-70
2023/02/24 16:43:40;;;;;;;;;;;;;;;;;;5111580;28;20030;-70
2023/02/24 16:46:06;;;;;;;;;;;;;;;;;;5111686;28;19908;-71
2023/02/24 16:48:35;;;;;;;;;;;;;;;;;;5109813;28;20332;-70
2023/02/24 16:51:01;;;;;;;;;;;;;;;;;;5112059;28;19908;-70
2023/02/24 16:53:27;;;;;;;;;;;;;;;;;;5111510;28;19915;-70
2023/02/24 16:55:53;;;;;;;;;;;;;;;;;;5109752;28;19965;-71
2023/02/24 16:58:19;;;;;;;;;;;;;;;;;;5111594;28;19962;-71
2023/02/24 17:00:45;;;;;;;;;;;;;;;;;;5111297;28;19916;-71
2023/02/24 17:03:11;;;;;;;;;;;;;;;;;;5109646;28;19931;-71
2023/02/24 17:05:37;;;;;;;;;;;;;;;;;;5109982;28;20276;-71
2023/02/24 17:08:03;;;;;;;;;;;;;;;;;;5111190;28;19912;-70
2023/02/24 17:10:30;;;;;;;;;;;;;;;;;;5110784;28;20380;-70
2023/02/24 17:12:56;;;;;;;;;;;;;;;;;;5111402;28;20249;-70
2023/02/24 17:15:22;;;;;;;;;;;;;;;;;;5111466;28;19908;-71
2023/02/24 17:17:48;;;;;;;;;;;;;;;;;;5109367;28;19915;-70
2023/02/24 17:20:14;;;;;;;;;;;;;;;;;;5111000;28;19924;-70
2023/02/24 17:22:40;;;;;;;;;;;;;;;;;;5110875;28;19947;-71
2023/02/24 17:25:06;;;;;;;;;;;;;;;;;;5110491;28;19948;-71
2023/02/24 17:27:32;;;;;;;;;;;;;;;;;;5110908;28;20353;-71
2023/02/24 17:29:58;;;;;;;;;;;;;;;;;;5110473;28;19966;-70
2023/02/24 17:32:24;;;;;;;;;;;;;;;;;;5110686;28;20005;-70
2023/02/24 17:34:50;;;;;;;;;;;;;;;;;;5109329;28;19908;-70
2023/02/24 17:37:16;;;;;;;;;;;;;;;;;;5110222;28;20462;-70
2023/02/24 17:39:42;;;;;;;;;;;;;;;;;;5110280;28;19920;-70
2023/02/24 17:42:08;;;;;;;;;;;;;;;;;;5110901;28;20016;-70
2023/02/24 17:44:34;;;;;;;;;;;;;;;;;;5110097;28;20012;-70
2023/02/24 17:47:00;;;;;;;;;;;;;;;;;;5110354;28;19908;-70
2023/02/24 17:49:26;;;;;;;;;;;;;;;;;;5110305;28;19915;-70
2023/02/24 17:51:52;;;;;;;;;;;;;;;;;;5100206;28;19908;-69
2023/02/24 17:54:18;;;;;;;;;;;;;;;;;;5096623;28;19984;-69
2023/02/24 17:56:43;;;;;;;;;;;;;;;;;;5096768;28;19916;-71
2023/02/24 17:59:09;;;;;;;;;;;;;;;;;;5096093;28;19912;-71
2023/02/24 18:01:35;;;;;;;;;;;;;;;;;;5096585;28;19913;-70
2023/02/24 18:04:01;;;;;;;;;;;;;;;;;;5096605;28;20320;-70
2023/02/24 18:06:27;;;;;;;;;;;;;;;;;;5094796;28;19912;-70
2023/02/24 18:08:53;;;;;;;;;;;;;;;;;;5095230;28;20011;-71
2023/02/24 18:11:19;;;;;;;;;;;;;;;;;;5096372;28;19938;-71
2023/02/24 18:13:49;;;;;;;;;;;;;;;;;;5095931;28;20003;-71
2023/02/24 18:16:16;;;;;;;;;;;;;;;;;;5096267;28;19967;-70
2023/02/24 18:18:42;;;;;;;;;;;;;;;;;;5096285;28;19908;-70
2023/02/24 18:21:08;;;;;;;;;;;;;;;;;;5095725;28;19923;-71
2023/02/24 18:23:34;;;;;;;;;;;;;;;;;;5096204;28;19919;-72
2023/02/24 18:26:00;;;;;;;;;;;;;;;;;;5095579;28;20361;-70
2023/02/24 18:28:25;;;;;;;;;;;;;;;;;;5095559;28;20287;-71
2023/02/24 18:30:51;;;;;;;;;;;;;;;;;;5095817;28;19908;-70
2023/02/24 18:33:17;;;;;;;;;;;;;;;;;;5095480;28;20387;-70
2023/02/24 18:35:43;;;;;;;;;;;;;;;;;;5094602;28;20287;-71
2023/02/24 18:38:10;;;;;;;;;;;;;;;;;;5094493;28;20276;-70
2023/02/24 18:40:36;;;;;;;;;;;;;;;;;;5093977;28;19919;-71
2023/02/24 18:43:02;;;;;;;;;;;;;;;;;;5095754;28;20369;-71
2023/02/24 18:45:28;;;;;;;;;;;;;;;;;;5094321;28;19939;-69
2023/02/24 18:47:54;;;;;;;;;;;;;;;;;;5095346;28;20318;-71
2023/02/24 18:50:23;;;;;;;;;;;;;;;;;;5095609;28;19962;-71
2023/02/24 18:52:49;;;;;;;;;;;;;;;;;;5094142;28;19960;-71
2023/02/24 18:55:15;;;;;;;;;;;;;;;;;;5093957;28;19990;-71
2023/02/24 18:57:41;;;;;;;;;;;;;;;;;;5095648;28;19915;-71
2023/02/24 19:00:07;;;;;;;;;;;;;;;;;;5095375;28;19923;-69
2023/02/24 19:02:33;;;;;;;;;;;;;;;;;;5094163;28;19912;-71
2023/02/24 19:04:59;;;;;;;;;;;;;;;;;;5095111;28;20040;-70
2023/02/24 19:07:25;;;;;;;;;;;;;;;;;;5095299;28;19951;-70